createdAt,value
2022-08-05T00:02:18.529Z,96999.00
2022-08-05T00:07:27.373Z,96985.00
2022-08-05T00:13:02.075Z,96933.00
2022-08-05T00:18:03.991Z,96910.00
2022-08-05T00:23:13.051Z,96901.00
2022-08-05T00:28:15.188Z,96905.00
2022-08-05T00:34:56.659Z,96932.00
2022-08-05T00:40:09.425Z,96957.00
2022-08-05T00:45:11.685Z,96962.00
2022-08-05T00:50:14.434Z,96978.00
2022-08-05T00:55:16.058Z,96955.00
2022-08-05T01:00:17.178Z,96911.00
2022-08-05T01:05:21.270Z,96886.00
2022-08-05T01:10:29.885Z,96861.00
2022-08-05T01:15:37.911Z,96869.00
2022-08-05T01:21:01.652Z,96851.00
2022-08-05T01:27:19.380Z,96834.00
2022-08-05T01:32:24.236Z,96769.00
2022-08-05T01:37:46.750Z,96738.00
2022-08-05T01:42:50.368Z,96701.00
2022-08-05T01:47:54.584Z,96721.00
2022-08-05T01:53:01.354Z,96719.00
2022-08-05T01:58:15.950Z,96712.00
2022-08-05T02:03:31.400Z,96777.00
2022-08-05T02:08:33.324Z,96835.00
2022-08-05T02:13:53.894Z,96909.00
2022-08-05T02:19:07.379Z,96913.00
2022-08-05T02:24:13.681Z,96924.00
2022-08-05T02:29:26.190Z,96939.00
2022-08-05T02:35:13.867Z,96928.00
2022-08-05T02:40:20.103Z,96884.00
2022-08-05T02:45:25.709Z,96846.00
2022-08-05T02:50:27.837Z,96839.00
2022-08-05T02:55:54.729Z,96781.00
2022-08-05T03:01:02.331Z,96846.00
2022-08-05T03:06:53.647Z,96957.00
2022-08-05T03:12:00.157Z,96982.00
2022-08-05T03:17:07.338Z,96980.00
2022-08-05T03:22:16.458Z,97012.00
2022-08-05T03:27:20.589Z,97008.00
2022-08-05T03:32:21.698Z,97014.00
2022-08-05T03:37:32.589Z,96997.00
2022-08-05T03:42:52.601Z,96987.00
2022-08-05T03:47:57.122Z,96965.00
2022-08-05T03:55:51.627Z,96940.00
2022-08-05T04:01:11.256Z,96916.00
2022-08-05T04:06:16.906Z,96937.00
2022-08-05T04:11:18.000Z,96968.00
2022-08-05T04:16:24.959Z,97024.00
2022-08-05T04:22:05.088Z,97035.00
2022-08-05T04:27:15.223Z,97048.00
2022-08-05T04:32:20.044Z,97022.00
2022-08-05T04:38:01.472Z,97014.00
2022-08-05T04:43:10.941Z,97007.00
2022-08-05T04:48:27.031Z,97000.00
2022-08-05T04:53:29.167Z,97054.00
2022-08-05T04:58:34.855Z,97094.00
2022-08-05T05:03:41.954Z,97080.00
2022-08-05T05:08:43.627Z,97075.00
2022-08-05T05:13:44.446Z,97046.00
2022-08-05T05:19:08.864Z,97032.00
2022-08-05T05:24:18.752Z,97040.00
2022-08-05T05:29:19.603Z,97042.00
2022-08-05T05:34:26.763Z,97028.00
2022-08-05T05:39:34.412Z,97001.00
2022-08-05T05:44:42.976Z,96997.00
2022-08-05T05:49:45.626Z,96996.00
2022-08-05T05:55:05.875Z,96976.00
2022-08-05T06:00:11.624Z,96995.00
2022-08-05T06:05:20.481Z,96998.00
2022-08-05T06:10:21.455Z,96934.00
2022-08-05T06:15:25.337Z,96931.00
2022-08-05T06:21:35.927Z,96971.00
2022-08-05T06:26:39.584Z,96951.00
2022-08-05T06:31:52.975Z,96970.00
2022-08-05T06:36:58.022Z,97002.00
2022-08-05T06:42:01.930Z,97013.00
2022-08-05T06:47:05.401Z,97015.00
2022-08-05T06:52:37.893Z,97020.00
2022-08-05T06:58:03.330Z,97032.00
2022-08-05T07:03:21.411Z,97033.00
2022-08-05T07:08:33.353Z,97036.00
2022-08-05T07:13:59.558Z,97044.00
2022-08-05T07:19:01.362Z,97056.00
2022-08-05T07:24:03.475Z,97077.00
2022-08-05T07:29:12.585Z,97077.00
2022-08-05T07:34:14.060Z,97086.00
2022-08-05T07:39:24.700Z,97097.00
2022-08-05T07:45:56.430Z,97111.00
2022-08-05T07:50:59.612Z,97118.00
2022-08-05T07:56:05.162Z,97115.00
2022-08-05T08:01:17.262Z,97117.00
2022-08-05T08:06:23.246Z,97108.00
2022-08-05T08:11:49.499Z,97128.00
2022-08-05T08:16:55.975Z,97133.00
2022-08-05T08:21:57.333Z,97123.00
2022-08-05T08:26:58.711Z,97134.00
2022-08-05T08:31:59.854Z,97123.00
2022-08-05T08:37:04.929Z,97122.00
2022-08-05T08:42:32.351Z,97122.00
2022-08-05T08:48:06.884Z,97089.00
2022-08-05T08:53:24.558Z,97080.00
2022-08-05T08:58:43.370Z,97118.00
2022-08-05T09:03:54.270Z,97127.00
2022-08-05T09:09:01.582Z,97128.00
2022-08-05T09:14:54.062Z,97121.00
2022-08-05T09:20:02.848Z,97108.00
2022-08-05T09:25:07.004Z,97097.00
2022-08-05T09:30:25.341Z,97087.00
2022-08-05T09:35:27.203Z,97108.00
2022-08-05T09:40:51.798Z,97108.00
2022-08-05T09:46:07.765Z,97100.00
2022-08-05T09:51:15.310Z,97119.00
2022-08-05T09:56:34.161Z,97135.00
2022-08-05T10:01:39.694Z,97142.00
2022-08-05T10:06:59.080Z,97144.00
2022-08-05T10:12:18.767Z,97149.00
2022-08-05T10:17:37.284Z,97168.00
2022-08-05T10:22:43.205Z,97176.00
2022-08-05T10:28:13.661Z,97186.00
2022-08-05T10:33:25.046Z,97190.00
2022-08-05T10:38:33.105Z,97165.00
2022-08-05T10:43:53.950Z,97140.00
2022-08-05T10:49:01.551Z,97151.00
2022-08-05T10:54:28.354Z,97162.00
2022-08-05T11:00:03.644Z,97164.00
2022-08-05T11:05:11.294Z,97152.00
2022-08-05T11:10:27.689Z,97154.00
2022-08-05T11:16:00.099Z,97151.00
2022-08-05T11:21:02.431Z,97160.00
2022-08-05T11:26:28.731Z,97156.00
2022-08-05T11:31:58.870Z,97163.00
2022-08-05T11:37:02.182Z,97169.00
2022-08-05T11:42:09.045Z,97174.00
2022-08-05T11:47:15.242Z,97180.00
2022-08-05T11:52:29.263Z,97184.00
2022-08-05T11:57:30.974Z,97170.00
2022-08-05T12:02:40.672Z,97183.00
2022-08-05T12:08:07.982Z,97189.00
2022-08-05T12:13:18.796Z,97189.00
2022-08-05T12:18:34.335Z,97189.00
2022-08-05T12:23:50.408Z,97211.00
2022-08-05T12:28:52.028Z,97227.00
2022-08-05T12:33:54.298Z,97247.00
2022-08-05T12:38:57.186Z,97233.00
2022-08-05T12:44:04.395Z,97227.00
2022-08-05T12:49:13.698Z,97237.00
2022-08-05T12:54:27.741Z,97248.00
2022-08-05T13:00:08.982Z,97269.00
2022-08-05T13:07:16.073Z,97292.00
2022-08-05T13:12:21.627Z,97309.00
2022-08-05T13:17:41.370Z,97323.00
2022-08-05T13:22:47.409Z,97301.00
2022-08-05T13:27:53.638Z,97325.00
2022-08-05T13:32:54.501Z,97308.00
2022-08-05T13:37:57.440Z,97284.00
2022-08-05T13:43:12.127Z,97303.00
2022-08-05T13:48:58.741Z,97299.00
2022-08-05T13:54:01.791Z,97303.00
2022-08-05T13:59:06.324Z,97325.00
2022-08-05T14:04:39.654Z,97329.00
2022-08-05T14:09:46.050Z,97347.00
2022-08-05T14:14:47.895Z,97345.00
2022-08-05T14:19:56.008Z,97345.00
2022-08-05T14:24:58.880Z,97340.00
2022-08-05T14:29:59.898Z,97355.00
2022-08-05T14:35:00.945Z,97349.00
2022-08-05T14:40:02.721Z,97356.00
2022-08-05T14:45:04.835Z,97371.00
2022-08-05T14:50:18.071Z,97363.00
2022-08-05T14:55:20.356Z,97376.00
2022-08-05T15:00:28.168Z,97371.00
2022-08-05T15:06:06.995Z,97368.00
2022-08-05T15:11:13.694Z,97358.00
2022-08-05T15:16:16.169Z,97361.00
2022-08-05T15:21:21.032Z,97359.00
2022-08-05T15:26:31.712Z,97352.00
2022-08-05T15:31:34.903Z,97364.00
2022-08-05T15:36:35.908Z,97373.00
2022-08-05T15:41:55.464Z,97369.00
2022-08-05T15:47:03.736Z,97374.00
2022-08-05T15:52:13.117Z,97369.00
2022-08-05T15:57:17.521Z,97382.00
2022-08-05T16:02:19.696Z,97378.00
2022-08-05T16:07:29.362Z,97377.00
2022-08-05T16:12:30.638Z,97372.00
2022-08-05T16:17:32.175Z,97372.00
2022-08-05T16:22:34.270Z,97387.00
2022-08-05T16:27:59.952Z,97389.00
2022-08-05T16:33:06.018Z,97384.00
2022-08-05T16:38:18.420Z,97396.00
2022-08-05T16:43:31.451Z,97394.00
2022-08-05T16:48:33.441Z,97409.00
2022-08-05T16:54:06.104Z,97416.00
2022-08-05T16:59:17.112Z,97419.00
2022-08-05T17:04:18.959Z,97416.00
2022-08-05T17:09:20.392Z,97431.00
2022-08-05T17:14:34.295Z,97435.00
2022-08-05T17:19:40.850Z,97434.00
2022-08-05T17:24:56.713Z,97447.00
2022-08-05T17:30:00.630Z,97455.00
2022-08-05T17:35:04.273Z,97450.00
2022-08-05T17:40:10.165Z,97464.00
2022-08-05T17:45:20.113Z,97462.00
2022-08-05T17:50:29.933Z,97470.00
2022-08-05T17:55:37.791Z,97469.00
2022-08-05T18:00:47.182Z,97470.00
2022-08-05T18:05:53.379Z,97472.00
2022-08-05T18:10:55.196Z,97481.00
2022-08-05T18:15:58.215Z,97487.00
2022-08-05T18:21:00.147Z,97490.00
2022-08-05T18:26:03.627Z,97493.00
2022-08-05T18:31:06.493Z,97510.00
2022-08-05T18:36:15.388Z,97518.00
2022-08-05T18:41:55.146Z,97517.00
2022-08-05T18:47:03.226Z,97533.00
2022-08-05T18:52:33.102Z,97543.00
2022-08-05T18:57:43.193Z,97540.00
2022-08-05T19:02:52.190Z,97549.00
2022-08-05T19:07:55.484Z,97575.00
2022-08-05T19:12:56.805Z,97579.00
2022-08-05T19:18:08.561Z,97590.00
2022-08-05T19:24:04.987Z,97592.00
2022-08-05T19:29:09.744Z,97593.00
2022-08-05T19:34:10.585Z,97611.00
2022-08-05T19:39:11.699Z,97620.00
2022-08-05T19:44:19.080Z,97631.00
2022-08-05T19:49:19.961Z,97647.00
2022-08-05T19:54:26.974Z,97659.00
2022-08-05T19:59:56.319Z,97657.00
2022-08-05T20:05:16.374Z,97666.00
2022-08-05T20:10:25.281Z,97662.00
2022-08-05T20:15:51.539Z,97673.00
2022-08-05T20:20:56.181Z,97674.00
2022-08-05T20:25:57.631Z,97673.00
2022-08-05T20:31:01.014Z,97692.00
2022-08-05T20:36:03.073Z,97697.00
2022-08-05T20:41:08.047Z,97692.00
2022-08-05T20:46:10.267Z,97694.00
2022-08-05T20:51:19.326Z,97714.00
2022-08-05T20:56:28.782Z,97717.00
2022-08-05T21:01:38.215Z,97720.00
2022-08-05T21:06:45.126Z,97735.00
2022-08-05T21:12:07.019Z,97746.00
2022-08-05T21:17:10.562Z,97761.00
2022-08-05T21:22:11.430Z,97765.00
2022-08-05T21:27:13.003Z,97769.00
2022-08-05T21:32:17.165Z,97769.00
2022-08-05T21:37:21.285Z,97765.00
2022-08-05T21:42:31.129Z,97761.00
2022-08-05T21:47:57.186Z,97773.00
2022-08-05T21:53:04.562Z,97774.00
2022-08-05T21:58:19.435Z,97766.00
2022-08-05T22:03:51.854Z,97757.00
2022-08-05T22:08:54.199Z,97757.00
2022-08-05T22:14:31.313Z,97767.00
2022-08-05T22:20:01.835Z,97761.00
2022-08-05T22:27:06.942Z,97755.00
2022-08-05T22:32:12.098Z,97752.00
2022-08-05T22:37:18.532Z,97746.00
2022-08-05T22:42:25.389Z,97749.00
2022-08-05T22:47:29.018Z,97760.00
2022-08-05T22:52:34.325Z,97770.00
2022-08-05T22:57:36.573Z,97784.00
2022-08-05T23:02:46.489Z,97794.00
2022-08-05T23:07:50.332Z,97804.00
2022-08-05T23:12:54.960Z,97806.00
2022-08-05T23:18:01.153Z,97814.00
2022-08-05T23:23:08.387Z,97813.00
2022-08-05T23:28:10.123Z,97815.00
2022-08-05T23:33:16.206Z,97822.00
2022-08-05T23:38:25.059Z,97820.00
2022-08-05T23:44:02.915Z,97819.00
2022-08-05T23:49:16.691Z,97827.00
2022-08-05T23:54:18.643Z,97818.00
